GMTT Airport Information

Runway Information
Runway 07 Length 6562 ft width 98 ft
Elevation 0 ft Threshold 0 ft Heading 69
Runway 25 Length 6562 ft Width 98 ft
Elevation 0 ft Threshold 0 ft Heading 249
Runway 10 Length 11483 ft width 148 ft
Elevation 20 ft Threshold 0 ft Heading 96
Runway 28 Length 11483 ft Width 148 ft
Elevation 62 ft Threshold 1640 ft Heading 276
Airport Frequencies
Type APP Name TANGER APP Frequency 121.2 MHZ
Type TWR Name TANGER TWR Frequency 119.5 MHZ
Airport Navaids
Type VOR-DME Name Tanger Frequency 115900 KHZ
Airport Weather Information & NOTAM
ADDS - METARS form results

(0816 UTC 21 April 2019)
Data provider http://aviationweather.gov/metar/data/
 
METAR text: GMTT 210800Z 20001KT 8000 SCT013 BKN016 14/12 Q1009 NOSIG
Conditions at: GMTT (TANGIER/BOUKHALF, MA) observed 0800 UTC 21 April 2019
Temperature: 14.0°C (57°F)
Dewpoint: 12.0°C (54°F) [RH = 88%]
Pressure (altimeter): 29.79 inches Hg (1009.0 mb)
Winds: from the SSW (200 degrees) at 1 MPH (1 knots; 0.5 m/s)
Visibility: 5 miles ( 8 km)
Ceiling: 1600 feet AGL
Clouds: scattered clouds at 1300 feet AGL
broken clouds at 1600 feet AGL
Weather: no significant weather observed at this time

METAR text: GMTT 210730Z VRB02KT 8000 SCT016 BKN083 14/12 Q1009 NOSIG
Conditions at: GMTT (TANGIER/BOUKHALF, MA) observed 0730 UTC 21 April 2019
Temperature: 14.0°C (57°F)
Dewpoint: 12.0°C (54°F) [RH = 88%]
Pressure (altimeter): 29.79 inches Hg (1009.0 mb)
Winds: variable direction winds at 2 MPH (2 knots; 1.0 m/s)
Visibility: 5 miles ( 8 km)
Ceiling: 8300 feet AGL
Clouds: scattered clouds at 1600 feet AGL
broken clouds at 8300 feet AGL
Weather: no significant weather observed at this time

Forecast for: GMTT (TANGIER/BOUKHALF, MA)
Text: TAF GMTT 210500Z 2106/2212 10004KT 8000 SCT016 BKN100
Forecast period: 0600 to 1100 UTC 21 April 2019
Forecast type: FROM: standard forecast or significant change
Winds: from the E (100 degrees) at 5 MPH (4 knots; 2.1 m/s)
Visibility: 5 miles (8 km)
Ceiling: 10000 feet AGL
Clouds: scattered clouds at 1600 feet AGL
broken clouds at 10000 feet AGL
Weather: no significant weather forecast for this period
Text: BECMG 2111/2113 26010KT
Forecast period: 1100 UTC 21 April 2019 to 1200 UTC 22 April 2019
Forecast type: BECOMING: Conditions expected to become as follows by 1300 UTC 21 April 2019
Winds: from the W (260 degrees) at 12 MPH (10 knots; 5.1 m/s)
Visibility: 5 miles (8 km)
Ceiling: 10000 feet AGL
Clouds: scattered clouds at 1600 feet AGL
broken clouds at 10000 feet AGL
Weather: no significant weather forecast for this period
Text: PROB40
Forecast period: 2200 UTC 21 April 2019 to 0600 UTC 22 April 2019
Forecast type: TEMPORARY: The following changes expected for less than half the time period
Visibility: 2.49 miles (4.01 km)
Ceiling: unknown
Clouds: missing
Weather: RA  (moderate rain)